sensor_id;sensor_type;location;lat;lon;timestamp;temperature;humidity
43858;DHT22;29507;51.284;5.758;2022-07-29T00:01:34;17.50;99.90
43858;DHT22;29507;51.284;5.758;2022-07-29T00:03:59;17.30;99.90
43858;DHT22;29507;51.284;5.758;2022-07-29T00:06:25;17.10;99.90
43858;DHT22;29507;51.284;5.758;2022-07-29T00:08:50;16.90;99.90
43858;DHT22;29507;51.284;5.758;2022-07-29T00:11:16;16.80;99.90
43858;DHT22;29507;51.284;5.758;2022-07-29T00:13:42;16.80;99.90
43858;DHT22;29507;51.284;5.758;2022-07-29T00:16:07;16.70;99.90
43858;DHT22;29507;51.284;5.758;2022-07-29T00:18:33;16.70;99.90
43858;DHT22;29507;51.284;5.758;2022-07-29T00:20:58;16.70;99.90
43858;DHT22;29507;51.284;5.758;2022-07-29T00:23:24;16.80;99.90
43858;DHT22;29507;51.284;5.758;2022-07-29T00:25:49;16.80;99.90
43858;DHT22;29507;51.284;5.758;2022-07-29T00:28:15;16.80;99.90
43858;DHT22;29507;51.284;5.758;2022-07-29T00:30:40;16.80;99.90
43858;DHT22;29507;51.284;5.758;2022-07-29T00:33:08;16.60;99.90
43858;DHT22;29507;51.284;5.758;2022-07-29T00:35:34;16.60;99.90
43858;DHT22;29507;51.284;5.758;2022-07-29T00:38:10;16.70;99.90
43858;DHT22;29507;51.284;5.758;2022-07-29T00:40:36;16.80;99.90
43858;DHT22;29507;51.284;5.758;2022-07-29T00:43:01;16.70;99.90
43858;DHT22;29507;51.284;5.758;2022-07-29T00:45:27;16.30;99.90
43858;DHT22;29507;51.284;5.758;2022-07-29T00:47:53;15.80;99.90
43858;DHT22;29507;51.284;5.758;2022-07-29T00:50:19;15.40;99.90
43858;DHT22;29507;51.284;5.758;2022-07-29T00:52:44;15.10;99.90
43858;DHT22;29507;51.284;5.758;2022-07-29T00:55:13;14.80;99.90
43858;DHT22;29507;51.284;5.758;2022-07-29T00:57:41;14.50;99.90
43858;DHT22;29507;51.284;5.758;2022-07-29T01:00:18;14.40;99.90
43858;DHT22;29507;51.284;5.758;2022-07-29T01:02:45;14.50;99.90
43858;DHT22;29507;51.284;5.758;2022-07-29T01:05:14;14.70;99.90
43858;DHT22;29507;51.284;5.758;2022-07-29T01:07:41;14.80;99.90
43858;DHT22;29507;51.284;5.758;2022-07-29T01:10:09;14.90;99.90
43858;DHT22;29507;51.284;5.758;2022-07-29T01:12:36;14.80;99.90
43858;DHT22;29507;51.284;5.758;2022-07-29T01:15:04;14.80;99.90
43858;DHT22;29507;51.284;5.758;2022-07-29T01:17:52;14.70;99.90
43858;DHT22;29507;51.284;5.758;2022-07-29T01:29:28;14.60;99.90
43858;DHT22;29507;51.284;5.758;2022-07-29T01:35:07;14.80;99.90
43858;DHT22;29507;51.284;5.758;2022-07-29T01:40:19;14.70;99.90
43858;DHT22;29507;51.284;5.758;2022-07-29T01:42:51;14.60;99.90
43858;DHT22;29507;51.284;5.758;2022-07-29T01:45:26;14.50;99.90
43858;DHT22;29507;51.284;5.758;2022-07-29T01:48:19;14.50;99.90
43858;DHT22;29507;51.284;5.758;2022-07-29T01:50:49;14.50;99.90
43858;DHT22;29507;51.284;5.758;2022-07-29T01:53:23;14.40;99.90
43858;DHT22;29507;51.284;5.758;2022-07-29T01:55:52;14.60;99.90
43858;DHT22;29507;51.284;5.758;2022-07-29T01:58:19;14.60;99.90
43858;DHT22;29507;51.284;5.758;2022-07-29T02:00:47;14.40;99.90
43858;DHT22;29507;51.284;5.758;2022-07-29T02:03:14;14.40;99.90
43858;DHT22;29507;51.284;5.758;2022-07-29T02:05:42;14.40;99.90
43858;DHT22;29507;51.284;5.758;2022-07-29T02:08:09;14.40;99.90
43858;DHT22;29507;51.284;5.758;2022-07-29T02:10:36;14.50;99.90
43858;DHT22;29507;51.284;5.758;2022-07-29T02:13:03;14.60;99.90
43858;DHT22;29507;51.284;5.758;2022-07-29T02:15:32;14.60;99.90
43858;DHT22;29507;51.284;5.758;2022-07-29T02:18:09;14.60;99.90
43858;DHT22;29507;51.284;5.758;2022-07-29T02:20:37;14.60;99.90
43858;DHT22;29507;51.284;5.758;2022-07-29T02:23:04;14.60;99.90
43858;DHT22;29507;51.284;5.758;2022-07-29T02:25:30;14.60;99.90
43858;DHT22;29507;51.284;5.758;2022-07-29T02:27:58;14.50;99.90
43858;DHT22;29507;51.284;5.758;2022-07-29T02:30:25;14.50;99.90
43858;DHT22;29507;51.284;5.758;2022-07-29T02:32:53;14.40;99.90
43858;DHT22;29507;51.284;5.758;2022-07-29T02:35:20;14.40;99.90
43858;DHT22;29507;51.284;5.758;2022-07-29T02:37:47;14.40;99.90
43858;DHT22;29507;51.284;5.758;2022-07-29T02:40:34;14.40;99.90
43858;DHT22;29507;51.284;5.758;2022-07-29T02:43:03;14.40;99.90
43858;DHT22;29507;51.284;5.758;2022-07-29T02:45:32;14.50;99.90
43858;DHT22;29507;51.284;5.758;2022-07-29T02:48:00;14.50;99.90
43858;DHT22;29507;51.284;5.758;2022-07-29T02:50:34;14.40;99.90
43858;DHT22;29507;51.284;5.758;2022-07-29T02:53:14;14.40;99.90
43858;DHT22;29507;51.284;5.758;2022-07-29T02:55:49;14.30;99.90
43858;DHT22;29507;51.284;5.758;2022-07-29T02:58:34;14.30;99.90
43858;DHT22;29507;51.284;5.758;2022-07-29T03:01:08;14.40;99.90
43858;DHT22;29507;51.284;5.758;2022-07-29T03:03:37;14.30;99.90
43858;DHT22;29507;51.284;5.758;2022-07-29T03:06:04;14.30;99.90
43858;DHT22;29507;51.284;5.758;2022-07-29T03:08:31;14.30;99.90
43858;DHT22;29507;51.284;5.758;2022-07-29T03:10:58;14.30;99.90
43858;DHT22;29507;51.284;5.758;2022-07-29T03:13:24;14.30;99.90
43858;DHT22;29507;51.284;5.758;2022-07-29T03:15:52;14.30;99.90
43858;DHT22;29507;51.284;5.758;2022-07-29T03:18:19;14.30;99.90
43858;DHT22;29507;51.284;5.758;2022-07-29T03:20:45;14.40;99.90
43858;DHT22;29507;51.284;5.758;2022-07-29T03:23:10;14.40;99.90
43858;DHT22;29507;51.284;5.758;2022-07-29T03:25:36;14.40;99.90
43858;DHT22;29507;51.284;5.758;2022-07-29T03:28:02;14.30;99.90
43858;DHT22;29507;51.284;5.758;2022-07-29T03:30:28;14.30;99.90
43858;DHT22;29507;51.284;5.758;2022-07-29T03:32:56;14.20;99.90
43858;DHT22;29507;51.284;5.758;2022-07-29T03:35:22;14.10;99.90
43858;DHT22;29507;51.284;5.758;2022-07-29T03:37:48;14.10;99.90
43858;DHT22;29507;51.284;5.758;2022-07-29T03:40:32;14.10;99.90
43858;DHT22;29507;51.284;5.758;2022-07-29T03:43:00;14.00;99.90
43858;DHT22;29507;51.284;5.758;2022-07-29T03:45:29;14.00;99.90
43858;DHT22;29507;51.284;5.758;2022-07-29T03:48:01;14.00;99.90
43858;DHT22;29507;51.284;5.758;2022-07-29T03:50:31;14.00;99.90
43858;DHT22;29507;51.284;5.758;2022-07-29T03:52:57;14.00;99.90
43858;DHT22;29507;51.284;5.758;2022-07-29T03:55:23;14.00;99.90
43858;DHT22;29507;51.284;5.758;2022-07-29T03:57:49;14.00;99.90
43858;DHT22;29507;51.284;5.758;2022-07-29T04:00:16;14.00;99.90
43858;DHT22;29507;51.284;5.758;2022-07-29T04:02:43;14.00;99.90
43858;DHT22;29507;51.284;5.758;2022-07-29T04:05:14;14.00;99.90
43858;DHT22;29507;51.284;5.758;2022-07-29T04:07:43;14.00;99.90
43858;DHT22;29507;51.284;5.758;2022-07-29T04:10:09;14.00;99.90
43858;DHT22;29507;51.284;5.758;2022-07-29T04:12:35;14.00;99.90
43858;DHT22;29507;51.284;5.758;2022-07-29T04:15:02;14.00;99.90
43858;DHT22;29507;51.284;5.758;2022-07-29T04:17:28;14.00;99.90
43858;DHT22;29507;51.284;5.758;2022-07-29T04:19:53;14.00;99.90
43858;DHT22;29507;51.284;5.758;2022-07-29T04:22:19;14.00;99.90
43858;DHT22;29507;51.284;5.758;2022-07-29T04:24:44;14.00;99.90
43858;DHT22;29507;51.284;5.758;2022-07-29T04:27:10;14.00;99.90
43858;DHT22;29507;51.284;5.758;2022-07-29T04:29:35;14.00;99.90
43858;DHT22;29507;51.284;5.758;2022-07-29T04:32:01;14.00;99.90
43858;DHT22;29507;51.284;5.758;2022-07-29T04:34:27;14.00;99.90
43858;DHT22;29507;51.284;5.758;2022-07-29T04:36:52;14.00;99.90
43858;DHT22;29507;51.284;5.758;2022-07-29T04:39:18;14.00;99.90
43858;DHT22;29507;51.284;5.758;2022-07-29T04:41:44;14.10;99.90
43858;DHT22;29507;51.284;5.758;2022-07-29T04:44:09;14.10;99.90
43858;DHT22;29507;51.284;5.758;2022-07-29T04:46:35;14.10;99.90
43858;DHT22;29507;51.284;5.758;2022-07-29T04:49:02;14.20;99.90
43858;DHT22;29507;51.284;5.758;2022-07-29T04:51:28;14.20;99.90
43858;DHT22;29507;51.284;5.758;2022-07-29T04:53:53;14.20;99.90
43858;DHT22;29507;51.284;5.758;2022-07-29T04:56:19;14.20;99.90
43858;DHT22;29507;51.284;5.758;2022-07-29T04:58:45;14.20;99.90
43858;DHT22;29507;51.284;5.758;2022-07-29T05:01:11;14.20;99.90
43858;DHT22;29507;51.284;5.758;2022-07-29T05:03:36;14.20;99.90
43858;DHT22;29507;51.284;5.758;2022-07-29T05:06:02;14.20;99.90
43858;DHT22;29507;51.284;5.758;2022-07-29T05:08:27;14.20;99.90
43858;DHT22;29507;51.284;5.758;2022-07-29T05:10:53;14.30;99.90
43858;DHT22;29507;51.284;5.758;2022-07-29T05:13:19;14.20;99.90
43858;DHT22;29507;51.284;5.758;2022-07-29T05:15:44;14.30;99.90
43858;DHT22;29507;51.284;5.758;2022-07-29T05:18:10;14.30;99.90
43858;DHT22;29507;51.284;5.758;2022-07-29T05:20:35;14.30;99.90
43858;DHT22;29507;51.284;5.758;2022-07-29T05:23:01;14.30;99.90
43858;DHT22;29507;51.284;5.758;2022-07-29T05:25:28;14.30;99.90
43858;DHT22;29507;51.284;5.758;2022-07-29T05:27:54;14.30;99.90
43858;DHT22;29507;51.284;5.758;2022-07-29T05:30:20;14.30;99.90
43858;DHT22;29507;51.284;5.758;2022-07-29T05:32:46;14.30;99.90
43858;DHT22;29507;51.284;5.758;2022-07-29T05:35:13;14.20;99.90
43858;DHT22;29507;51.284;5.758;2022-07-29T05:37:39;14.30;99.90
43858;DHT22;29507;51.284;5.758;2022-07-29T05:40:06;14.20;99.90
43858;DHT22;29507;51.284;5.758;2022-07-29T05:42:32;14.20;99.90
43858;DHT22;29507;51.284;5.758;2022-07-29T05:44:57;14.20;99.90
43858;DHT22;29507;51.284;5.758;2022-07-29T05:47:23;14.20;99.90
43858;DHT22;29507;51.284;5.758;2022-07-29T05:49:50;14.10;99.90
43858;DHT22;29507;51.284;5.758;2022-07-29T05:52:16;14.00;99.90
43858;DHT22;29507;51.284;5.758;2022-07-29T05:54:42;14.00;99.90
43858;DHT22;29507;51.284;5.758;2022-07-29T05:57:08;14.10;99.90
43858;DHT22;29507;51.284;5.758;2022-07-29T05:59:37;14.10;99.90
43858;DHT22;29507;51.284;5.758;2022-07-29T06:02:04;14.20;99.90
43858;DHT22;29507;51.284;5.758;2022-07-29T06:04:31;14.20;99.90
43858;DHT22;29507;51.284;5.758;2022-07-29T06:06:56;14.30;99.90
43858;DHT22;29507;51.284;5.758;2022-07-29T06:09:22;14.20;99.90
43858;DHT22;29507;51.284;5.758;2022-07-29T06:11:48;14.20;99.90
43858;DHT22;29507;51.284;5.758;2022-07-29T06:14:14;14.10;99.90
43858;DHT22;29507;51.284;5.758;2022-07-29T06:16:39;14.20;99.90
43858;DHT22;29507;51.284;5.758;2022-07-29T06:19:05;14.10;99.90
43858;DHT22;29507;51.284;5.758;2022-07-29T06:21:31;14.10;99.90
43858;DHT22;29507;51.284;5.758;2022-07-29T06:23:56;14.10;99.90
43858;DHT22;29507;51.284;5.758;2022-07-29T06:26:22;14.20;99.90
43858;DHT22;29507;51.284;5.758;2022-07-29T06:28:48;14.20;99.90
43858;DHT22;29507;51.284;5.758;2022-07-29T06:31:14;14.30;99.90
43858;DHT22;29507;51.284;5.758;2022-07-29T06:33:39;14.40;99.90
43858;DHT22;29507;51.284;5.758;2022-07-29T06:36:05;14.50;99.90
43858;DHT22;29507;51.284;5.758;2022-07-29T06:38:32;14.70;99.90
43858;DHT22;29507;51.284;5.758;2022-07-29T06:40:59;14.80;99.90
43858;DHT22;29507;51.284;5.758;2022-07-29T06:46:00;15.10;99.90
43858;DHT22;29507;51.284;5.758;2022-07-29T06:48:26;15.40;99.90
43858;DHT22;29507;51.284;5.758;2022-07-29T06:50:52;15.60;99.90
43858;DHT22;29507;51.284;5.758;2022-07-29T06:53:18;15.80;99.90
43858;DHT22;29507;51.284;5.758;2022-07-29T06:55:43;16.00;99.90
43858;DHT22;29507;51.284;5.758;2022-07-29T06:58:09;16.30;99.90
43858;DHT22;29507;51.284;5.758;2022-07-29T07:00:36;16.30;99.90
43858;DHT22;29507;51.284;5.758;2022-07-29T07:03:02;16.40;99.90
43858;DHT22;29507;51.284;5.758;2022-07-29T07:05:27;16.40;99.90
43858;DHT22;29507;51.284;5.758;2022-07-29T07:07:53;16.40;99.90
43858;DHT22;29507;51.284;5.758;2022-07-29T07:10:18;16.40;99.90
43858;DHT22;29507;51.284;5.758;2022-07-29T07:12:44;16.40;99.90
43858;DHT22;29507;51.284;5.758;2022-07-29T07:15:10;16.30;99.90
43858;DHT22;29507;51.284;5.758;2022-07-29T07:17:35;16.30;99.90
43858;DHT22;29507;51.284;5.758;2022-07-29T07:20:01;16.30;99.90
43858;DHT22;29507;51.284;5.758;2022-07-29T07:22:27;16.40;99.90
43858;DHT22;29507;51.284;5.758;2022-07-29T07:24:52;16.50;99.90
43858;DHT22;29507;51.284;5.758;2022-07-29T07:27:18;16.50;99.90
43858;DHT22;29507;51.284;5.758;2022-07-29T07:29:43;16.40;99.90
43858;DHT22;29507;51.284;5.758;2022-07-29T07:32:09;16.40;99.90
43858;DHT22;29507;51.284;5.758;2022-07-29T07:34:34;16.40;99.90
43858;DHT22;29507;51.284;5.758;2022-07-29T07:37:00;16.30;99.90
43858;DHT22;29507;51.284;5.758;2022-07-29T07:39:26;16.30;99.90
43858;DHT22;29507;51.284;5.758;2022-07-29T07:41:52;16.50;99.90
43858;DHT22;29507;51.284;5.758;2022-07-29T07:44:17;17.50;99.90
43858;DHT22;29507;51.284;5.758;2022-07-29T07:46:43;18.30;99.90
43858;DHT22;29507;51.284;5.758;2022-07-29T07:49:10;17.90;99.90
43858;DHT22;29507;51.284;5.758;2022-07-29T07:51:36;18.00;99.90
43858;DHT22;29507;51.284;5.758;2022-07-29T07:54:01;18.60;99.90
43858;DHT22;29507;51.284;5.758;2022-07-29T07:56:27;18.90;99.90
43858;DHT22;29507;51.284;5.758;2022-07-29T07:58:53;19.50;99.90
43858;DHT22;29507;51.284;5.758;2022-07-29T08:01:18;19.90;99.90
43858;DHT22;29507;51.284;5.758;2022-07-29T08:03:46;19.90;99.90
43858;DHT22;29507;51.284;5.758;2022-07-29T08:06:12;19.50;99.90
43858;DHT22;29507;51.284;5.758;2022-07-29T08:08:37;18.80;99.90
43858;DHT22;29507;51.284;5.758;2022-07-29T08:11:03;18.20;99.90
43858;DHT22;29507;51.284;5.758;2022-07-29T08:13:29;17.90;99.90
43858;DHT22;29507;51.284;5.758;2022-07-29T08:15:56;17.70;99.90
43858;DHT22;29507;51.284;5.758;2022-07-29T08:18:36;17.60;99.90
43858;DHT22;29507;51.284;5.758;2022-07-29T08:21:02;17.60;99.90
43858;DHT22;29507;51.284;5.758;2022-07-29T08:23:28;18.00;99.90
43858;DHT22;29507;51.284;5.758;2022-07-29T08:26:00;18.60;99.90
43858;DHT22;29507;51.284;5.758;2022-07-29T08:28:26;19.70;99.90
43858;DHT22;29507;51.284;5.758;2022-07-29T08:30:52;21.00;99.90
43858;DHT22;29507;51.284;5.758;2022-07-29T08:33:17;21.90;99.90
43858;DHT22;29507;51.284;5.758;2022-07-29T08:35:43;22.10;99.90
43858;DHT22;29507;51.284;5.758;2022-07-29T08:38:09;21.90;99.90
43858;DHT22;29507;51.284;5.758;2022-07-29T08:40:35;22.10;99.90
43858;DHT22;29507;51.284;5.758;2022-07-29T08:43:08;22.50;99.90
43858;DHT22;29507;51.284;5.758;2022-07-29T08:45:48;22.60;95.00
43858;DHT22;29507;51.284;5.758;2022-07-29T08:48:17;22.50;97.90
43858;DHT22;29507;51.284;5.758;2022-07-29T08:50:43;22.60;97.90
43858;DHT22;29507;51.284;5.758;2022-07-29T08:53:14;22.80;91.80
43858;DHT22;29507;51.284;5.758;2022-07-29T08:55:46;23.20;94.20
43858;DHT22;29507;51.284;5.758;2022-07-29T08:58:13;23.50;92.80
43858;DHT22;29507;51.284;5.758;2022-07-29T09:00:44;23.70;91.00
43858;DHT22;29507;51.284;5.758;2022-07-29T09:03:14;23.50;90.10
43858;DHT22;29507;51.284;5.758;2022-07-29T09:05:45;22.90;91.40
43858;DHT22;29507;51.284;5.758;2022-07-29T09:08:12;22.90;98.70
43858;DHT22;29507;51.284;5.758;2022-07-29T09:10:38;23.10;94.60
43858;DHT22;29507;51.284;5.758;2022-07-29T09:13:03;23.00;97.90
43858;DHT22;29507;51.284;5.758;2022-07-29T09:15:29;23.20;97.30
43858;DHT22;29507;51.284;5.758;2022-07-29T09:17:55;23.70;94.30
43858;DHT22;29507;51.284;5.758;2022-07-29T09:20:22;23.50;94.20
43858;DHT22;29507;51.284;5.758;2022-07-29T09:22:49;23.50;93.80
43858;DHT22;29507;51.284;5.758;2022-07-29T09:25:36;23.10;94.60
43858;DHT22;29507;51.284;5.758;2022-07-29T09:28:10;22.70;99.90
43858;DHT22;29507;51.284;5.758;2022-07-29T09:30:55;22.90;97.60
43858;DHT22;29507;51.284;5.758;2022-07-29T09:33:23;23.80;94.10
43858;DHT22;29507;51.284;5.758;2022-07-29T09:35:59;24.90;90.50
43858;DHT22;29507;51.284;5.758;2022-07-29T09:38:25;25.90;86.80
43858;DHT22;29507;51.284;5.758;2022-07-29T09:40:58;26.20;82.40
43858;DHT22;29507;51.284;5.758;2022-07-29T09:43:24;26.80;79.20
43858;DHT22;29507;51.284;5.758;2022-07-29T09:45:50;26.90;78.40
43858;DHT22;29507;51.284;5.758;2022-07-29T09:48:18;26.80;77.20
43858;DHT22;29507;51.284;5.758;2022-07-29T09:50:45;26.60;78.80
43858;DHT22;29507;51.284;5.758;2022-07-29T09:53:33;26.90;78.20
43858;DHT22;29507;51.284;5.758;2022-07-29T09:55:59;27.20;77.00
43858;DHT22;29507;51.284;5.758;2022-07-29T09:58:24;27.30;77.30
43858;DHT22;29507;51.284;5.758;2022-07-29T10:00:51;27.20;76.30
43858;DHT22;29507;51.284;5.758;2022-07-29T10:03:18;27.00;75.70
43858;DHT22;29507;51.284;5.758;2022-07-29T10:05:45;26.60;78.30
43858;DHT22;29507;51.284;5.758;2022-07-29T10:08:11;26.50;80.40
43858;DHT22;29507;51.284;5.758;2022-07-29T10:10:41;26.90;79.20
43858;DHT22;29507;51.284;5.758;2022-07-29T10:13:11;27.10;77.60
43858;DHT22;29507;51.284;5.758;2022-07-29T10:15:39;27.30;77.60
43858;DHT22;29507;51.284;5.758;2022-07-29T10:18:07;27.50;76.40
43858;DHT22;29507;51.284;5.758;2022-07-29T10:20:32;27.10;78.00
43858;DHT22;29507;51.284;5.758;2022-07-29T10:22:58;27.00;75.30
43858;DHT22;29507;51.284;5.758;2022-07-29T10:25:25;27.20;76.00
43858;DHT22;29507;51.284;5.758;2022-07-29T10:27:51;27.30;76.20
43858;DHT22;29507;51.284;5.758;2022-07-29T10:30:18;27.40;76.80
43858;DHT22;29507;51.284;5.758;2022-07-29T10:38:30;27.70;76.30
43858;DHT22;29507;51.284;5.758;2022-07-29T10:44:06;27.80;71.60
43858;DHT22;29507;51.284;5.758;2022-07-29T10:46:38;28.10;73.00
43858;DHT22;29507;51.284;5.758;2022-07-29T10:52:07;28.70;69.60
43858;DHT22;29507;51.284;5.758;2022-07-29T10:54:44;28.80;67.20
43858;DHT22;29507;51.284;5.758;2022-07-29T10:57:25;29.00;68.70
43858;DHT22;29507;51.284;5.758;2022-07-29T11:07:25;28.60;66.10
43858;DHT22;29507;51.284;5.758;2022-07-29T11:15:05;29.80;66.80
43858;DHT22;29507;51.284;5.758;2022-07-29T11:20:49;29.80;63.70
43858;DHT22;29507;51.284;5.758;2022-07-29T11:29:04;29.80;64.30
43858;DHT22;29507;51.284;5.758;2022-07-29T11:31:37;29.80;62.00
43858;DHT22;29507;51.284;5.758;2022-07-29T11:40:07;30.00;63.60
43858;DHT22;29507;51.284;5.758;2022-07-29T11:42:37;30.00;63.40
43858;DHT22;29507;51.284;5.758;2022-07-29T11:45:10;30.30;64.90
43858;DHT22;29507;51.284;5.758;2022-07-29T11:47:56;30.50;63.30
43858;DHT22;29507;51.284;5.758;2022-07-29T11:50:30;31.00;63.10
43858;DHT22;29507;51.284;5.758;2022-07-29T11:52:56;31.10;61.50
43858;DHT22;29507;51.284;5.758;2022-07-29T11:55:23;31.10;61.20
43858;DHT22;29507;51.284;5.758;2022-07-29T11:57:59;31.20;60.00
43858;DHT22;29507;51.284;5.758;2022-07-29T12:00:33;31.00;61.50
43858;DHT22;29507;51.284;5.758;2022-07-29T12:03:05;30.80;61.40
43858;DHT22;29507;51.284;5.758;2022-07-29T12:05:42;31.10;61.30
43858;DHT22;29507;51.284;5.758;2022-07-29T12:08:15;31.20;62.60
43858;DHT22;29507;51.284;5.758;2022-07-29T12:10:44;31.60;61.00
43858;DHT22;29507;51.284;5.758;2022-07-29T12:13:11;31.60;61.50
43858;DHT22;29507;51.284;5.758;2022-07-29T12:15:37;31.60;62.50
43858;DHT22;29507;51.284;5.758;2022-07-29T12:18:13;31.90;61.90
43858;DHT22;29507;51.284;5.758;2022-07-29T12:20:39;32.30;61.20
43858;DHT22;29507;51.284;5.758;2022-07-29T12:23:07;32.40;58.80
43858;DHT22;29507;51.284;5.758;2022-07-29T12:25:35;32.40;59.40
43858;DHT22;29507;51.284;5.758;2022-07-29T12:28:05;33.00;60.00
43858;DHT22;29507;51.284;5.758;2022-07-29T12:30:43;32.90;58.80
43858;DHT22;29507;51.284;5.758;2022-07-29T12:33:27;32.60;58.60
43858;DHT22;29507;51.284;5.758;2022-07-29T12:35:55;32.70;56.80
43858;DHT22;29507;51.284;5.758;2022-07-29T12:38:22;32.70;58.80
43858;DHT22;29507;51.284;5.758;2022-07-29T12:40:48;32.70;56.10
43858;DHT22;29507;51.284;5.758;2022-07-29T12:43:19;32.50;57.70
43858;DHT22;29507;51.284;5.758;2022-07-29T12:45:56;32.60;56.60
43858;DHT22;29507;51.284;5.758;2022-07-29T12:48:39;32.70;57.20
43858;DHT22;29507;51.284;5.758;2022-07-29T12:51:06;32.70;56.30
43858;DHT22;29507;51.284;5.758;2022-07-29T12:53:33;33.00;55.80
43858;DHT22;29507;51.284;5.758;2022-07-29T12:55:59;33.30;56.50
43858;DHT22;29507;51.284;5.758;2022-07-29T12:58:38;33.20;56.10
43858;DHT22;29507;51.284;5.758;2022-07-29T13:01:08;33.20;54.40
43858;DHT22;29507;51.284;5.758;2022-07-29T13:03:58;33.30;55.20
43858;DHT22;29507;51.284;5.758;2022-07-29T13:06:43;33.70;53.70
43858;DHT22;29507;51.284;5.758;2022-07-29T13:09:13;34.10;52.70
43858;DHT22;29507;51.284;5.758;2022-07-29T13:14:06;33.70;54.70
43858;DHT22;29507;51.284;5.758;2022-07-29T13:16:32;33.70;55.70
43858;DHT22;29507;51.284;5.758;2022-07-29T13:19:06;33.80;54.90
43858;DHT22;29507;51.284;5.758;2022-07-29T13:21:33;33.80;54.50
43858;DHT22;29507;51.284;5.758;2022-07-29T13:23:59;33.80;54.20
43858;DHT22;29507;51.284;5.758;2022-07-29T13:26:25;33.60;56.50
43858;DHT22;29507;51.284;5.758;2022-07-29T13:28:50;33.90;56.30
43858;DHT22;29507;51.284;5.758;2022-07-29T13:31:16;34.50;55.20
43858;DHT22;29507;51.284;5.758;2022-07-29T13:33:41;35.10;54.20
43858;DHT22;29507;51.284;5.758;2022-07-29T13:36:07;35.00;52.60
43858;DHT22;29507;51.284;5.758;2022-07-29T13:38:33;34.30;53.20
43858;DHT22;29507;51.284;5.758;2022-07-29T13:40:59;33.00;54.50
43858;DHT22;29507;51.284;5.758;2022-07-29T13:43:25;31.40;56.10
43858;DHT22;29507;51.284;5.758;2022-07-29T13:45:51;31.20;55.60
43858;DHT22;29507;51.284;5.758;2022-07-29T13:48:17;29.90;56.50
43858;DHT22;29507;51.284;5.758;2022-07-29T13:50:43;29.80;57.80
43858;DHT22;29507;51.284;5.758;2022-07-29T13:53:09;30.50;57.70
43858;DHT22;29507;51.284;5.758;2022-07-29T13:55:34;31.20;56.90
43858;DHT22;29507;51.284;5.758;2022-07-29T13:58:00;31.70;55.70
43858;DHT22;29507;51.284;5.758;2022-07-29T14:00:25;31.50;55.40
43858;DHT22;29507;51.284;5.758;2022-07-29T14:02:51;30.10;56.10
43858;DHT22;29507;51.284;5.758;2022-07-29T14:05:17;30.00;57.90
43858;DHT22;29507;51.284;5.758;2022-07-29T14:07:43;31.20;55.90
43858;DHT22;29507;51.284;5.758;2022-07-29T14:10:08;31.50;54.10
43858;DHT22;29507;51.284;5.758;2022-07-29T14:12:34;31.80;54.60
43858;DHT22;29507;51.284;5.758;2022-07-29T14:15:00;32.40;54.80
43858;DHT22;29507;51.284;5.758;2022-07-29T14:17:26;32.30;55.30
43858;DHT22;29507;51.284;5.758;2022-07-29T14:19:51;32.60;55.70
43858;DHT22;29507;51.284;5.758;2022-07-29T14:22:17;32.60;54.20
43858;DHT22;29507;51.284;5.758;2022-07-29T14:24:44;32.80;53.60
43858;DHT22;29507;51.284;5.758;2022-07-29T14:27:10;32.10;53.70
43858;DHT22;29507;51.284;5.758;2022-07-29T14:29:36;31.70;55.80
43858;DHT22;29507;51.284;5.758;2022-07-29T14:32:01;31.30;55.90
43858;DHT22;29507;51.284;5.758;2022-07-29T14:34:27;31.40;57.20
43858;DHT22;29507;51.284;5.758;2022-07-29T14:36:53;31.70;55.00
43858;DHT22;29507;51.284;5.758;2022-07-29T14:39:22;31.80;54.00
43858;DHT22;29507;51.284;5.758;2022-07-29T14:41:49;31.70;54.70
43858;DHT22;29507;51.284;5.758;2022-07-29T14:44:16;31.10;54.50
43858;DHT22;29507;51.284;5.758;2022-07-29T14:46:43;30.00;56.00
43858;DHT22;29507;51.284;5.758;2022-07-29T14:49:08;28.90;58.10
43858;DHT22;29507;51.284;5.758;2022-07-29T14:51:34;28.20;59.60
43858;DHT22;29507;51.284;5.758;2022-07-29T14:53:59;27.80;60.20
43858;DHT22;29507;51.284;5.758;2022-07-29T14:56:25;27.50;59.90
43858;DHT22;29507;51.284;5.758;2022-07-29T14:58:51;27.30;60.50
43858;DHT22;29507;51.284;5.758;2022-07-29T15:01:16;27.10;61.60
43858;DHT22;29507;51.284;5.758;2022-07-29T15:03:42;27.50;61.50
43858;DHT22;29507;51.284;5.758;2022-07-29T15:06:07;27.60;61.80
43858;DHT22;29507;51.284;5.758;2022-07-29T15:08:33;27.90;62.30
43858;DHT22;29507;51.284;5.758;2022-07-29T15:10:59;28.10;59.30
43858;DHT22;29507;51.284;5.758;2022-07-29T15:13:26;27.90;59.20
43858;DHT22;29507;51.284;5.758;2022-07-29T15:15:51;27.60;60.30
43858;DHT22;29507;51.284;5.758;2022-07-29T15:18:17;27.40;60.90
43858;DHT22;29507;51.284;5.758;2022-07-29T15:20:48;27.50;60.80
43858;DHT22;29507;51.284;5.758;2022-07-29T15:23:15;27.50;61.30
43858;DHT22;29507;51.284;5.758;2022-07-29T15:25:41;27.50;60.50
43858;DHT22;29507;51.284;5.758;2022-07-29T15:28:06;27.40;61.20
43858;DHT22;29507;51.284;5.758;2022-07-29T15:30:34;27.20;61.40
43858;DHT22;29507;51.284;5.758;2022-07-29T15:33:02;27.10;62.80
43858;DHT22;29507;51.284;5.758;2022-07-29T15:35:28;27.40;61.60
43858;DHT22;29507;51.284;5.758;2022-07-29T15:37:54;27.70;59.90
43858;DHT22;29507;51.284;5.758;2022-07-29T15:40:20;28.10;58.30
43858;DHT22;29507;51.284;5.758;2022-07-29T15:42:45;28.10;59.50
43858;DHT22;29507;51.284;5.758;2022-07-29T15:45:11;28.20;59.90
43858;DHT22;29507;51.284;5.758;2022-07-29T15:47:36;28.50;58.10
43858;DHT22;29507;51.284;5.758;2022-07-29T15:50:02;28.50;57.90
43858;DHT22;29507;51.284;5.758;2022-07-29T15:52:28;28.50;57.40
43858;DHT22;29507;51.284;5.758;2022-07-29T15:54:54;28.50;58.90
43858;DHT22;29507;51.284;5.758;2022-07-29T15:57:20;28.50;58.80
43858;DHT22;29507;51.284;5.758;2022-07-29T15:59:46;28.70;57.60
43858;DHT22;29507;51.284;5.758;2022-07-29T16:02:11;28.60;56.40
43858;DHT22;29507;51.284;5.758;2022-07-29T16:04:37;28.30;57.10
43858;DHT22;29507;51.284;5.758;2022-07-29T16:07:03;27.80;59.00
43858;DHT22;29507;51.284;5.758;2022-07-29T16:09:32;27.60;59.40
43858;DHT22;29507;51.284;5.758;2022-07-29T16:11:58;27.50;58.70
43858;DHT22;29507;51.284;5.758;2022-07-29T16:14:23;27.20;59.00
43858;DHT22;29507;51.284;5.758;2022-07-29T16:16:49;27.00;59.70
43858;DHT22;29507;51.284;5.758;2022-07-29T16:19:17;27.00;59.00
43858;DHT22;29507;51.284;5.758;2022-07-29T16:21:43;27.10;59.90
43858;DHT22;29507;51.284;5.758;2022-07-29T16:24:09;27.70;57.60
43858;DHT22;29507;51.284;5.758;2022-07-29T16:26:35;28.10;57.30
43858;DHT22;29507;51.284;5.758;2022-07-29T16:29:02;28.50;55.90
43858;DHT22;29507;51.284;5.758;2022-07-29T16:31:28;28.70;56.10
43858;DHT22;29507;51.284;5.758;2022-07-29T16:33:54;28.80;56.00